(°C)
26°
25°
24°
23°
22°
22°
21°
(°C)
25°
24°
22°
22°
21°
20°
19°
S
SSV
SSV
SV
SV
SV
SV
(km/h)
2-6
2-6
2-6
2-6
2-5
2-5
2-5
(mm)
0
0
0
0
0
0
0
(%)
0
0
0
0
0
0
0

Výška Slnka nad obzorom

/ -15°
sun-icon
UV 8
06:13
20:28
Ubúdajúci kosáčik (338°)
05:04
19:01

Správy METAR pre lokalitu Južná Karolína (KCUB)

Čas Podmienky Teplota/
Rosný bod
Vietor Viditeľnosť Počasie Oblaky Tlak Zmeniť Nespracované
VFR 26.1°C / 15.6°C variable 0kt >10km - Clear 1012 - KCUB 290053Z AUTO 00000KT 10SM CLR 26/16 A2990 RMK AO2 SLP123 T02610156
VFR 28.9°C / 15°C variable 0kt >10km - Clear 1011 - KCUB 282353Z AUTO 00000KT 10SM CLR 29/15 A2989 RMK AO2 SLP118 T02890150 10317 20289 53008
VFR 30.6°C / 13.9°C 290º 5kt >10km - Clear 1011 - KCUB 282253Z AUTO 29005KT 10SM CLR 31/14 A2987 RMK AO2 SLP113 T03060139
VFR 30°C / 13.9°C variable 3kt >10km - Clear 1011 - KCUB 282153Z AUTO VRB03KT 10SM CLR 30/14 A2987 RMK AO2 SLP110 T03000139
VFR 31.1°C / 13.9°C variable 6kt >10km - Clear 1011 - KCUB 282053Z AUTO VRB06KT 10SM CLR 31/14 A2986 RMK AO2 SLP110 T03110139 56010
VFR 31.1°C / 14.4°C variable 6kt >10km - Few Clouds 6000ft 1011 - KCUB 281953Z AUTO VRB06KT 10SM FEW060 31/14 A2987 RMK AO2 SLP111 T03110144
VFR 31.1°C / 14.4°C >10km - Few Clouds 7000ft 1011 - KCUB 281853Z AUTO 10SM FEW070 31/14 A2988 RMK AO2 SLP115 T03110144
VFR 28.9°C / 14.4°C variable 3kt >10km - Broken Clouds 6500ft 1012 - KCUB 281753Z AUTO VRB03KT 10SM BKN065 29/14 A2989 RMK AO2 SLP120 T02890144 10294 20222 58011
VFR 28.9°C / 15°C 220º 5kt >10km - Clear 1012 - KCUB 281653Z AUTO 22005KT 10SM CLR 29/15 A2991 RMK AO2 SLP124 T02890150
VFR 27.8°C / 15°C variable 3kt >10km - Clear 1012 - KCUB 281553Z AUTO VRB03KT 10SM CLR 28/15 A2992 RMK AO2 SLP128 T02780150
VFR 26.7°C / 15.6°C variable 0kt >10km - Clear 1013 - KCUB 281453Z AUTO 00000KT 10SM CLR 27/16 A2993 RMK AO2 SLP131 T02670156 51010
VFR 25.6°C / 16.1°C variable 0kt >10km - Clear 1013 - KCUB 281353Z AUTO 00000KT 10SM CLR 26/16 A2992 RMK AO2 SLP130 T02560161
VFR 23.9°C / 15.6°C variable 4kt >10km - Clear 1012 - KCUB 281253Z AUTO VRB04KT 10SM CLR 24/16 A2992 RMK AO2 SLP128 T02390156
VFR 22.2°C / 16.1°C 340º 3kt >10km - Clear 1012 - KCUB 281153Z AUTO 34003KT 10SM CLR 22/16 A2990 RMK AO2 SLP121 T02220161 10244 20200 53009
VFR 20°C / 17.2°C variable 0kt >10km - Clear 1011 - KCUB 281053Z AUTO 00000KT 10SM CLR 20/17 A2989 RMK AO2 SLP118 T02000172
VFR 21.1°C / 17.2°C variable 0kt >10km - Clear 1011 - KCUB 280953Z AUTO 00000KT 10SM CLR 21/17 A2987 RMK AO2 SLP112 T02110172
VFR 20.6°C / 18.3°C variable 0kt >10km - Few Clouds 6500ft
Scattered Clouds 8000ft
1011 - KCUB 280853Z AUTO 00000KT 10SM FEW065 SCT080 21/18 A2987 RMK AO2 SLP112 T02060183 53001
VFR 21.7°C / 18.3°C variable 0kt >10km - Scattered Clouds 9500ft 1010 - KCUB 280753Z AUTO 00000KT 10SM SCT095 22/18 A2986 RMK AO2 SLP108 T02170183
VFR 22.2°C / 18.9°C variable 0kt >10km - Clear 1010 - KCUB 280653Z AUTO 00000KT 10SM CLR 22/19 A2986 RMK AO2 SLP108 T02220189
VFR 24.4°C / 19.4°C 240º 5kt >10km - Few Clouds 6000ft
Few Clouds 8000ft
Broken Clouds 9500ft
1011 - KCUB 280553Z AUTO 24005KT 10SM FEW060 FEW080 BKN095 24/19 A2986 RMK AO2 SLP110 T02440194 10272 20244 55002
VFR 24.4°C / 20°C 210º 5kt >10km - Broken Clouds 6500ft
Overcast 10000ft
1010 - KCUB 280453Z AUTO 21005KT 10SM BKN065 OVC100 24/20 A2986 RMK AO2 SLP109 T02440200 403000222
VFR 24.4°C / 19.4°C 190º 7kt >10km - Broken Clouds 7000ft
Overcast 9500ft
1010 - KCUB 280353Z AUTO 19007KT 10SM BKN070 OVC095 24/19 A2986 RMK AO2 SLP109 T02440194
VFR 25°C / 16.7°C 180º 5kt >10km - Broken Clouds 7500ft
Broken Clouds 10000ft
1011 - KCUB 280253Z AUTO 18005KT 10SM BKN075 BKN100 25/17 A2987 RMK AO2 SLP112 T02500167 53010
VFR 25.6°C / 16.7°C 190º 3kt >10km - Overcast 7500ft 1010 - KCUB 280153Z AUTO 19003KT 10SM OVC075 26/17 A2986 RMK AO2 SLP108 T02560167

VFR

26.1°C / 15.6°C

[Viac]
Vietor variable 0kt
Viditeľnosť >10km
Počasie -
Oblaky Clear
Tlak 1012
Zmeniť -
Nespracované KCUB 290053Z AUTO 00000KT 10SM CLR 26/16 A2990 RMK AO2 SLP123 T02610156

VFR

28.9°C / 15°C

[Viac]
Vietor variable 0kt
Viditeľnosť >10km
Počasie -
Oblaky Clear
Tlak 1011
Zmeniť -
Nespracované KCUB 282353Z AUTO 00000KT 10SM CLR 29/15 A2989 RMK AO2 SLP118 T02890150 10317 20289 53008

VFR

30.6°C / 13.9°C

[Viac]
Vietor 290º 5kt
Viditeľnosť >10km
Počasie -
Oblaky Clear
Tlak 1011
Zmeniť -
Nespracované KCUB 282253Z AUTO 29005KT 10SM CLR 31/14 A2987 RMK AO2 SLP113 T03060139

VFR

30°C / 13.9°C

[Viac]
Vietor variable 3kt
Viditeľnosť >10km
Počasie -
Oblaky Clear
Tlak 1011
Zmeniť -
Nespracované KCUB 282153Z AUTO VRB03KT 10SM CLR 30/14 A2987 RMK AO2 SLP110 T03000139

VFR

31.1°C / 13.9°C

[Viac]
Vietor variable 6kt
Viditeľnosť >10km
Počasie -
Oblaky Clear
Tlak 1011
Zmeniť -
Nespracované KCUB 282053Z AUTO VRB06KT 10SM CLR 31/14 A2986 RMK AO2 SLP110 T03110139 56010

VFR

31.1°C / 14.4°C

[Viac]
Vietor variable 6kt
Viditeľnosť >10km
Počasie -
Oblaky Few Clouds 6000ft
Tlak 1011
Zmeniť -
Nespracované KCUB 281953Z AUTO VRB06KT 10SM FEW060 31/14 A2987 RMK AO2 SLP111 T03110144

VFR

31.1°C / 14.4°C

[Viac]
Vietor
Viditeľnosť >10km
Počasie -
Oblaky Few Clouds 7000ft
Tlak 1011
Zmeniť -
Nespracované KCUB 281853Z AUTO 10SM FEW070 31/14 A2988 RMK AO2 SLP115 T03110144

VFR

28.9°C / 14.4°C

[Viac]
Vietor variable 3kt
Viditeľnosť >10km
Počasie -
Oblaky Broken Clouds 6500ft
Tlak 1012
Zmeniť -
Nespracované KCUB 281753Z AUTO VRB03KT 10SM BKN065 29/14 A2989 RMK AO2 SLP120 T02890144 10294 20222 58011

VFR

28.9°C / 15°C

[Viac]
Vietor 220º 5kt
Viditeľnosť >10km
Počasie -
Oblaky Clear
Tlak 1012
Zmeniť -
Nespracované KCUB 281653Z AUTO 22005KT 10SM CLR 29/15 A2991 RMK AO2 SLP124 T02890150

VFR

27.8°C / 15°C

[Viac]
Vietor variable 3kt
Viditeľnosť >10km
Počasie -
Oblaky Clear
Tlak 1012
Zmeniť -
Nespracované KCUB 281553Z AUTO VRB03KT 10SM CLR 28/15 A2992 RMK AO2 SLP128 T02780150

VFR

26.7°C / 15.6°C

[Viac]
Vietor variable 0kt
Viditeľnosť >10km
Počasie -
Oblaky Clear
Tlak 1013
Zmeniť -
Nespracované KCUB 281453Z AUTO 00000KT 10SM CLR 27/16 A2993 RMK AO2 SLP131 T02670156 51010

VFR

25.6°C / 16.1°C

[Viac]
Vietor variable 0kt
Viditeľnosť >10km
Počasie -
Oblaky Clear
Tlak 1013
Zmeniť -
Nespracované KCUB 281353Z AUTO 00000KT 10SM CLR 26/16 A2992 RMK AO2 SLP130 T02560161

VFR

23.9°C / 15.6°C

[Viac]
Vietor variable 4kt
Viditeľnosť >10km
Počasie -
Oblaky Clear
Tlak 1012
Zmeniť -
Nespracované KCUB 281253Z AUTO VRB04KT 10SM CLR 24/16 A2992 RMK AO2 SLP128 T02390156

VFR

22.2°C / 16.1°C

[Viac]
Vietor 340º 3kt
Viditeľnosť >10km
Počasie -
Oblaky Clear
Tlak 1012
Zmeniť -
Nespracované KCUB 281153Z AUTO 34003KT 10SM CLR 22/16 A2990 RMK AO2 SLP121 T02220161 10244 20200 53009

VFR

20°C / 17.2°C

[Viac]
Vietor variable 0kt
Viditeľnosť >10km
Počasie -
Oblaky Clear
Tlak 1011
Zmeniť -
Nespracované KCUB 281053Z AUTO 00000KT 10SM CLR 20/17 A2989 RMK AO2 SLP118 T02000172

VFR

21.1°C / 17.2°C

[Viac]
Vietor variable 0kt
Viditeľnosť >10km
Počasie -
Oblaky Clear
Tlak 1011
Zmeniť -
Nespracované KCUB 280953Z AUTO 00000KT 10SM CLR 21/17 A2987 RMK AO2 SLP112 T02110172

VFR

20.6°C / 18.3°C

[Viac]
Vietor variable 0kt
Viditeľnosť >10km
Počasie -
Oblaky Few Clouds 6500ft
Scattered Clouds 8000ft
Tlak 1011
Zmeniť -
Nespracované KCUB 280853Z AUTO 00000KT 10SM FEW065 SCT080 21/18 A2987 RMK AO2 SLP112 T02060183 53001

VFR

21.7°C / 18.3°C

[Viac]
Vietor variable 0kt
Viditeľnosť >10km
Počasie -
Oblaky Scattered Clouds 9500ft
Tlak 1010
Zmeniť -
Nespracované KCUB 280753Z AUTO 00000KT 10SM SCT095 22/18 A2986 RMK AO2 SLP108 T02170183

VFR

22.2°C / 18.9°C

[Viac]
Vietor variable 0kt
Viditeľnosť >10km
Počasie -
Oblaky Clear
Tlak 1010
Zmeniť -
Nespracované KCUB 280653Z AUTO 00000KT 10SM CLR 22/19 A2986 RMK AO2 SLP108 T02220189

VFR

24.4°C / 19.4°C

[Viac]
Vietor 240º 5kt
Viditeľnosť >10km
Počasie -
Oblaky Few Clouds 6000ft
Few Clouds 8000ft
Broken Clouds 9500ft
Tlak 1011
Zmeniť -
Nespracované KCUB 280553Z AUTO 24005KT 10SM FEW060 FEW080 BKN095 24/19 A2986 RMK AO2 SLP110 T02440194 10272 20244 55002

VFR

24.4°C / 20°C

[Viac]
Vietor 210º 5kt
Viditeľnosť >10km
Počasie -
Oblaky Broken Clouds 6500ft
Overcast 10000ft
Tlak 1010
Zmeniť -
Nespracované KCUB 280453Z AUTO 21005KT 10SM BKN065 OVC100 24/20 A2986 RMK AO2 SLP109 T02440200 403000222

VFR

24.4°C / 19.4°C

[Viac]
Vietor 190º 7kt
Viditeľnosť >10km
Počasie -
Oblaky Broken Clouds 7000ft
Overcast 9500ft
Tlak 1010
Zmeniť -
Nespracované KCUB 280353Z AUTO 19007KT 10SM BKN070 OVC095 24/19 A2986 RMK AO2 SLP109 T02440194

VFR

25°C / 16.7°C

[Viac]
Vietor 180º 5kt
Viditeľnosť >10km
Počasie -
Oblaky Broken Clouds 7500ft
Broken Clouds 10000ft
Tlak 1011
Zmeniť -
Nespracované KCUB 280253Z AUTO 18005KT 10SM BKN075 BKN100 25/17 A2987 RMK AO2 SLP112 T02500167 53010

VFR

25.6°C / 16.7°C

[Viac]
Vietor 190º 3kt
Viditeľnosť >10km
Počasie -
Oblaky Overcast 7500ft
Tlak 1010
Zmeniť -
Nespracované KCUB 280153Z AUTO 19003KT 10SM OVC075 26/17 A2986 RMK AO2 SLP108 T02560167

Správy TAF pre lokalitu Južná Karolína (KCUB)

From till


From till Wind variable 3kt. Visibility 10km or more. Scattered Clouds 6000ft.
From till Wind 160º 5kt. Visibility 10km or more. Scattered Clouds 6000ft. Scattered Clouds 25000ft.

Nespracované: KCUB 282329Z 2900/2924 VRB03KT P6SM SCT060 FM291500 16005KT P6SM SCT060 SCT250

Radar a krátkodobá predpoveď zrážok pre Južná Karolína

Mrholenie
Slabý
Mierne
Ťažké
Veľmi ťažké
Krúpy

Značka polohy je umiestnená na Južná Karolína. Táto animácia ukazuje zrážky pozorované radarom za poslednú hodinu a tiež 1h predpoveď. Mrholenie alebo slabé sneženie môže byť pre radar neviditeľné. Intenzita zrážok je farebne označená od svetlomodrej po oranžovú.

Aktuálne satelitné snímky pre lokalitu Južná Karolína, Spojené štáty americké

Značka polohy je umiestnená naJužná Karolína. [Viac]

Satelitné snímky zhotovované v reálnom čase využívajú viditeľné svetlo počas dňa a infračervené žiarenie počas noci. Vzhľadom na to, že infračervené žiarenie zisťuje teplotné rozdiely, snímka v noci nie je tmavá. Nízke oblaky a hmlu je, žiaľ, ťažké odlíšiť od prízemných teplôt, preto môžu byť počas noci takmer neviditeľné. Meteosat satelitné snímky pre Európu sú aktualizované v reálnom čase každých 5 minút. Snímky z GOES-16/GOES-17 (Severná a Južná Amerika) a Himawari (Ázia) sú aktualizované každých 10 minút.

Späť nahor